Terminal Aerodrome Forecast
Issued by NWS

Home | Current Version | Previous Version | Text Only | Print | Product List | Glossary On
Versions: 1 2 3 4 5 6 7 8 9 10 11 12 13 14 15 16 17 18
456
FTUS41 KBGM 242340
TAFRME
TAF
KRME 242340Z 2500/2524 15005KT P6SM FEW250
     FM250300 14004KT P6SM FEW250 WS020/21030KT
     FM251200 13005KT P6SM OVC110 PROB30 2512/2517 -SHRA OVC050
     FM251700 21008KT P6SM OVC050
     FM252100 24008KT P6SM OVC035=

USA.gov is the U.S. government's official web portal to all federal, state and local government web resources and services.